createdAt,value
2019-04-03T00:01:07.694Z,3.37
2019-04-03T00:03:36.155Z,4.08
2019-04-03T00:06:05.598Z,4.08
2019-04-03T00:08:36.147Z,2.60
2019-04-03T00:11:05.065Z,5.17
2019-04-03T00:13:33.614Z,3.95
2019-04-03T00:16:02.286Z,5.90
2019-04-03T00:18:30.940Z,4.40
2019-04-03T00:20:59.656Z,2.87
2019-04-03T00:23:28.190Z,8.18
2019-04-03T00:25:56.685Z,8.35
2019-04-03T00:28:25.453Z,3.70
2019-04-03T00:30:53.905Z,4.83
2019-04-03T00:33:23.374Z,2.77
2019-04-03T00:35:53.646Z,2.80
2019-04-03T00:38:23.921Z,3.02
2019-04-03T00:40:54.404Z,5.10
2019-04-03T00:43:24.615Z,3.93
2019-04-03T00:45:54.569Z,6.25
2019-04-03T00:48:25.737Z,4.17
2019-04-03T00:50:56.182Z,3.58
2019-04-03T00:53:24.405Z,3.00
2019-04-03T00:55:53.163Z,3.85
2019-04-03T00:58:36.212Z,6.08
2019-04-03T01:01:07.156Z,3.05
2019-04-03T01:03:35.594Z,5.17
2019-04-03T01:06:04.194Z,5.72
2019-04-03T01:08:32.826Z,4.20
2019-04-03T01:11:01.290Z,6.75
2019-04-03T01:13:31.318Z,8.43
2019-04-03T01:16:02.137Z,6.67
2019-04-03T01:18:30.699Z,9.88
2019-04-03T01:20:59.230Z,7.87
2019-04-03T01:23:27.750Z,9.65
2019-04-03T01:25:56.279Z,8.18
2019-04-03T01:28:24.711Z,7.90
2019-04-03T01:30:53.189Z,6.50
2019-04-03T01:33:21.764Z,9.05
2019-04-03T01:35:50.407Z,8.60
2019-04-03T01:38:19.470Z,11.30
2019-04-03T01:40:48.917Z,6.40
2019-04-03T01:43:18.913Z,8.40
2019-04-03T01:45:47.656Z,9.53
2019-04-03T01:48:16.156Z,9.53
2019-04-03T01:50:44.605Z,7.95
2019-04-03T01:53:13.071Z,7.20
2019-04-03T01:55:41.576Z,11.20
2019-04-03T01:58:10.277Z,6.78
2019-04-03T02:00:38.857Z,6.78
2019-04-03T02:03:09.736Z,7.37
2019-04-03T02:05:37.639Z,7.33
2019-04-03T02:08:06.241Z,9.10
2019-04-03T02:10:35.286Z,9.63
2019-04-03T02:13:04.091Z,8.70
2019-04-03T02:15:32.929Z,7.60
2019-04-03T02:18:01.425Z,9.78
2019-04-03T02:20:30.040Z,10.28
2019-04-03T02:23:00.408Z,7.65
2019-04-03T02:25:31.553Z,7.15
2019-04-03T02:27:58.863Z,6.97
2019-04-03T02:30:27.374Z,9.03
2019-04-03T02:32:57.259Z,8.20
2019-04-03T02:35:26.497Z,8.07
2019-04-03T02:37:55.024Z,7.67
2019-04-03T02:40:23.483Z,4.83
2019-04-03T02:42:52.219Z,6.08
2019-04-03T02:45:24.019Z,6.60
2019-04-03T02:47:51.337Z,7.83
2019-04-03T02:50:23.156Z,5.78
2019-04-03T02:52:52.120Z,7.10
2019-04-03T02:55:20.683Z,5.47
2019-04-03T02:57:49.984Z,6.62
2019-04-03T03:00:19.078Z,5.50
2019-04-03T03:02:47.652Z,5.58
2019-04-03T03:05:16.276Z,6.12
2019-04-03T03:07:45.209Z,6.95
2019-04-03T03:10:18.617Z,7.42
2019-04-03T03:12:45.430Z,8.45
2019-04-03T03:15:14.076Z,5.97
2019-04-03T03:17:42.807Z,7.65
2019-04-03T03:20:12.189Z,6.62
2019-04-03T03:22:41.156Z,7.22
2019-04-03T03:25:10.988Z,5.20
2019-04-03T03:27:41.707Z,3.98
2019-04-03T03:30:31.527Z,6.53
2019-04-03T03:32:40.944Z,8.45
2019-04-03T03:35:14.963Z,6.55
2019-04-03T03:37:40.790Z,6.05
2019-04-03T03:40:09.553Z,5.97
2019-04-03T03:42:38.261Z,9.00
2019-04-03T03:45:07.744Z,4.37
2019-04-03T03:47:37.769Z,6.53
2019-04-03T03:50:08.368Z,6.17
2019-04-03T03:52:39.204Z,4.12
2019-04-03T03:55:08.471Z,5.28
2019-04-03T03:57:40.315Z,3.72
2019-04-03T04:00:10.172Z,3.95
2019-04-03T04:02:43.104Z,7.42
2019-04-03T04:05:11.530Z,4.50
2019-04-03T04:07:39.799Z,5.10
2019-04-03T04:10:08.756Z,4.00
2019-04-03T04:12:41.297Z,4.42
2019-04-03T04:15:08.096Z,4.92
2019-04-03T04:17:36.994Z,4.60
2019-04-03T04:20:07.378Z,5.92
2019-04-03T04:22:37.360Z,4.53
2019-04-03T04:25:06.973Z,4.47
2019-04-03T04:27:37.904Z,4.58
2019-04-03T04:30:06.864Z,7.00
2019-04-03T04:32:35.556Z,5.28
2019-04-03T04:35:05.829Z,5.55
2019-04-03T04:37:34.649Z,4.23
2019-04-03T04:40:03.357Z,5.67
2019-04-03T04:42:34.408Z,3.33
2019-04-03T04:45:02.719Z,3.33
2019-04-03T04:47:31.308Z,4.10
2019-04-03T04:49:59.808Z,4.78
2019-04-03T04:52:28.366Z,6.22
2019-04-03T04:54:56.954Z,4.20
2019-04-03T04:57:25.544Z,4.22
2019-04-03T04:59:54.261Z,4.03
2019-04-03T05:02:28.423Z,4.62
2019-04-03T05:04:57.191Z,6.55
2019-04-03T05:07:25.780Z,7.15
2019-04-03T05:09:54.687Z,3.27
2019-04-03T05:12:23.168Z,5.33
2019-04-03T05:14:51.711Z,4.72
2019-04-03T05:17:20.154Z,3.50
2019-04-03T05:19:49.560Z,5.17
2019-04-03T05:22:18.135Z,4.62
2019-04-03T05:24:47.272Z,3.30
2019-04-03T05:27:15.899Z,3.12
2019-04-03T05:29:44.557Z,4.15
2019-04-03T05:32:13.071Z,5.30
2019-04-03T05:34:43.645Z,4.25
2019-04-03T05:37:12.549Z,3.67
2019-04-03T05:39:41.322Z,4.08
2019-04-03T05:42:10.049Z,3.08
2019-04-03T05:44:38.722Z,5.47
2019-04-03T05:47:08.455Z,6.50
2019-04-03T05:49:37.615Z,4.28
2019-04-03T05:52:06.071Z,4.15
2019-04-03T05:54:34.698Z,3.33
2019-04-03T05:57:03.233Z,3.05
2019-04-03T05:59:33.673Z,4.28
2019-04-03T06:02:14.130Z,5.62
2019-04-03T06:04:32.103Z,3.52
2019-04-03T06:07:01.032Z,4.17
2019-04-03T06:09:29.896Z,4.37
2019-04-03T06:11:58.726Z,3.98
2019-04-03T06:14:27.340Z,4.95
2019-04-03T06:16:56.707Z,6.47
2019-04-03T06:19:25.396Z,3.58
2019-04-03T06:21:53.975Z,3.30
2019-04-03T06:24:24.383Z,3.65
2019-04-03T06:26:52.795Z,4.27
2019-04-03T06:29:21.331Z,5.17
2019-04-03T06:31:49.787Z,7.33
2019-04-03T06:34:18.280Z,5.58
2019-04-03T06:36:50.162Z,4.12
2019-04-03T06:39:17.548Z,4.10
2019-04-03T06:41:46.713Z,4.30
2019-04-03T06:44:15.302Z,5.42
2019-04-03T06:46:43.772Z,7.20
2019-04-03T06:49:12.365Z,8.98
2019-04-03T06:51:41.112Z,6.15
2019-04-03T06:54:09.570Z,6.60
2019-04-03T06:56:40.001Z,4.72
2019-04-03T06:59:08.701Z,7.37
2019-04-03T07:01:37.334Z,7.62
2019-04-03T07:04:06.473Z,7.22
2019-04-03T07:06:35.586Z,7.20
2019-04-03T07:09:06.279Z,7.83
2019-04-03T07:11:34.751Z,7.05
2019-04-03T07:14:03.603Z,7.00
2019-04-03T07:16:32.547Z,6.50
2019-04-03T07:19:00.991Z,5.28
2019-04-03T07:21:29.498Z,4.95
2019-04-03T07:24:00.095Z,5.03
2019-04-03T07:26:28.554Z,5.63
2019-04-03T07:28:57.366Z,6.10
2019-04-03T07:31:25.882Z,6.28
2019-04-03T07:33:57.194Z,5.80
2019-04-03T07:36:24.595Z,7.62
2019-04-03T07:38:53.576Z,8.23
2019-04-03T07:41:23.424Z,6.58
2019-04-03T07:43:52.526Z,5.55
2019-04-03T07:46:21.310Z,5.47
2019-04-03T07:48:49.858Z,6.12
2019-04-03T07:51:18.334Z,6.53
2019-04-03T07:53:46.883Z,8.73
2019-04-03T07:56:15.470Z,7.72
2019-04-03T07:58:44.003Z,8.80
2019-04-03T08:01:12.523Z,6.95
2019-04-03T08:03:40.991Z,6.87
2019-04-03T08:06:09.546Z,6.08
2019-04-03T08:08:38.188Z,6.75
2019-04-03T08:11:06.651Z,6.87
2019-04-03T08:13:37.622Z,9.43
2019-04-03T08:16:05.346Z,7.83
2019-04-03T08:18:33.776Z,8.45
2019-04-03T08:21:02.361Z,9.08
2019-04-03T08:23:30.857Z,11.55
2019-04-03T08:25:59.420Z,8.88
2019-04-03T08:28:30.172Z,8.93
2019-04-03T08:30:58.060Z,5.62
2019-04-03T08:33:27.766Z,3.30
2019-04-03T08:35:56.896Z,4.65
2019-04-03T08:38:25.428Z,2.95
2019-04-03T08:40:53.913Z,3.77
2019-04-03T08:43:22.576Z,7.17
2019-04-03T08:45:51.053Z,4.47
2019-04-03T08:48:19.510Z,5.33
2019-04-03T08:50:47.957Z,3.25
2019-04-03T08:53:16.469Z,4.28
2019-04-03T08:55:46.407Z,5.20
2019-04-03T08:58:15.152Z,5.15
2019-04-03T09:00:43.671Z,4.92
2019-04-03T09:03:14.428Z,4.78
2019-04-03T09:05:42.523Z,1.00
2019-04-03T09:08:11.054Z,3.15
2019-04-03T09:10:39.554Z,1.35
2019-04-03T09:13:16.950Z,2.60
2019-04-03T09:15:38.424Z,2.27
2019-04-03T09:18:07.686Z,1.50
2019-04-03T09:20:36.825Z,1.32
2019-04-03T09:23:05.499Z,1.17
2019-04-03T09:25:34.110Z,1.57
2019-04-03T09:28:03.028Z,2.17
2019-04-03T09:30:31.782Z,1.22
2019-04-03T09:33:00.752Z,2.52
2019-04-03T09:35:32.070Z,1.10
2019-04-03T09:38:00.752Z,3.92
2019-04-03T09:40:29.487Z,1.70
2019-04-03T09:43:04.200Z,4.22
2019-04-03T09:45:32.986Z,1.17
2019-04-03T09:48:05.050Z,4.10
2019-04-03T09:50:33.452Z,2.20
2019-04-03T09:53:02.843Z,2.25
2019-04-03T09:55:36.034Z,0.47
2019-04-03T09:58:03.214Z,1.07
2019-04-03T10:00:31.948Z,1.05
2019-04-03T10:03:00.776Z,2.58
2019-04-03T10:05:29.750Z,0.50
2019-04-03T10:07:58.379Z,0.72
2019-04-03T10:10:27.057Z,1.60
2019-04-03T10:12:55.566Z,0.82
2019-04-03T10:15:24.147Z,0.60
2019-04-03T10:17:52.856Z,1.17
2019-04-03T10:20:21.415Z,0.60
2019-04-03T10:22:49.937Z,0.50
2019-04-03T10:25:18.813Z,1.22
2019-04-03T10:27:47.326Z,2.80
2019-04-03T10:30:16.624Z,0.57
2019-04-03T10:32:45.684Z,0.40
2019-04-03T10:35:14.816Z,0.75
2019-04-03T10:37:45.697Z,0.55
2019-04-03T10:40:15.545Z,0.47
2019-04-03T10:42:44.245Z,0.40
2019-04-03T10:45:13.629Z,0.65
2019-04-03T10:47:44.075Z,1.45
2019-04-03T10:50:12.797Z,0.30
2019-04-03T10:52:44.063Z,0.90
2019-04-03T10:55:11.790Z,1.50
2019-04-03T10:57:40.334Z,1.12
2019-04-03T11:00:12.369Z,0.50
2019-04-03T11:02:41.085Z,1.37
2019-04-03T11:05:11.208Z,0.68
2019-04-03T11:07:39.680Z,0.57
2019-04-03T11:10:10.076Z,0.40
2019-04-03T11:12:38.661Z,2.47
2019-04-03T11:15:10.824Z,0.47
2019-04-03T11:17:38.901Z,0.65
2019-04-03T11:20:09.713Z,1.10
2019-04-03T11:22:41.671Z,6.40
2019-04-03T11:25:09.698Z,3.80
2019-04-03T11:27:44.058Z,1.15
2019-04-03T11:30:16.953Z,0.90
2019-04-03T11:32:45.181Z,0.90
2019-04-03T11:35:15.238Z,0.98
2019-04-03T11:37:43.822Z,0.85
2019-04-03T11:40:13.311Z,1.27
2019-04-03T11:42:41.763Z,1.35
2019-04-03T11:45:11.261Z,0.60
2019-04-03T11:47:39.853Z,0.68
2019-04-03T11:50:09.503Z,1.52
2019-04-03T11:52:38.187Z,0.95
2019-04-03T11:55:10.010Z,0.60
2019-04-03T11:57:37.709Z,2.00
2019-04-03T12:00:11.074Z,0.60
2019-04-03T12:02:40.367Z,0.93
2019-04-03T12:05:10.177Z,0.60
2019-04-03T12:07:38.642Z,0.70
2019-04-03T12:10:07.582Z,1.40
2019-04-03T12:12:41.643Z,2.92
2019-04-03T12:15:09.700Z,1.62
2019-04-03T12:17:38.883Z,1.98
2019-04-03T12:20:09.372Z,2.37
2019-04-03T12:22:38.516Z,1.15
2019-04-03T12:25:08.360Z,2.35
2019-04-03T12:27:36.980Z,1.25
2019-04-03T12:30:09.531Z,0.80
2019-04-03T12:32:43.007Z,1.98
2019-04-03T12:35:09.738Z,1.05
2019-04-03T12:37:39.261Z,0.88
2019-04-03T12:40:08.604Z,1.87
2019-04-03T12:42:37.123Z,1.40
2019-04-03T12:45:07.450Z,1.25
2019-04-03T12:47:36.175Z,2.25
2019-04-03T12:50:07.514Z,1.42
2019-04-03T12:52:36.607Z,1.12
2019-04-03T12:55:08.627Z,1.07
2019-04-03T12:57:39.266Z,1.85
2019-04-03T13:00:12.945Z,3.47
2019-04-03T13:02:42.354Z,1.42
2019-04-03T13:05:12.003Z,1.65
2019-04-03T13:07:40.634Z,1.60
2019-04-03T13:10:10.121Z,1.40
2019-04-03T13:12:38.669Z,1.82
2019-04-03T13:15:09.691Z,1.57
2019-04-03T13:17:38.312Z,2.05
2019-04-03T13:20:08.080Z,1.20
2019-04-03T13:22:36.595Z,2.50
2019-04-03T13:25:09.593Z,0.90
2019-04-03T13:27:38.317Z,1.10
2019-04-03T13:30:12.889Z,1.80
2019-04-03T13:32:43.035Z,1.75
2019-04-03T13:35:14.646Z,2.80
2019-04-03T13:37:42.550Z,0.60
2019-04-03T13:40:11.831Z,0.90
2019-04-03T13:42:40.407Z,1.50
2019-04-03T13:45:09.444Z,1.42
2019-04-03T13:47:41.756Z,1.32
2019-04-03T13:50:09.507Z,2.07
2019-04-03T13:52:42.576Z,1.20
2019-04-03T13:55:09.625Z,1.00
2019-04-03T13:57:38.598Z,0.98
2019-04-03T14:00:18.278Z,1.27
2019-04-03T14:02:40.127Z,1.77
2019-04-03T14:05:09.758Z,1.10
2019-04-03T14:07:41.510Z,0.80
2019-04-03T14:10:09.777Z,1.72
2019-04-03T14:12:43.201Z,1.12
2019-04-03T14:15:09.769Z,1.90
2019-04-03T14:17:39.139Z,1.25
2019-04-03T14:20:09.047Z,1.80
2019-04-03T14:22:37.631Z,2.25
2019-04-03T14:25:17.787Z,1.65
2019-04-03T14:27:37.745Z,1.20
2019-04-03T14:30:11.749Z,1.15
2019-04-03T14:32:40.256Z,0.90
2019-04-03T14:35:41.097Z,1.27
2019-04-03T14:37:39.830Z,3.95
2019-04-03T14:40:11.100Z,1.22
2019-04-03T14:42:39.149Z,1.22
2019-04-03T14:45:08.979Z,1.10
2019-04-03T14:47:37.539Z,1.02
2019-04-03T14:50:07.174Z,2.05
2019-04-03T14:52:36.326Z,2.83
2019-04-03T14:55:23.334Z,2.05
2019-04-03T14:57:37.472Z,2.77
2019-04-03T15:00:25.225Z,2.02
2019-04-03T15:02:41.390Z,2.25
2019-04-03T15:05:11.934Z,1.55
2019-04-03T15:07:40.595Z,1.57
2019-04-03T15:10:09.793Z,1.85
2019-04-03T15:12:39.745Z,2.22
2019-04-03T15:15:09.675Z,1.77
2019-04-03T15:17:38.902Z,3.42
2019-04-03T15:20:09.771Z,1.62
2019-04-03T15:22:38.373Z,2.65
2019-04-03T15:25:07.505Z,3.52
2019-04-03T15:27:36.433Z,3.50
2019-04-03T15:30:09.960Z,1.62
2019-04-03T15:32:38.190Z,1.80
2019-04-03T15:35:07.974Z,0.98
2019-04-03T15:37:40.087Z,1.42
2019-04-03T15:40:07.976Z,1.70
2019-04-03T15:42:38.405Z,3.12
2019-04-03T15:45:08.963Z,3.75
2019-04-03T15:47:41.756Z,4.03
2019-04-03T15:50:08.969Z,2.00
2019-04-03T15:52:38.592Z,2.70
2019-04-03T15:55:08.391Z,2.37
2019-04-03T15:57:39.610Z,2.35
2019-04-03T16:00:15.993Z,2.17
2019-04-03T16:02:46.379Z,3.67
2019-04-03T16:05:15.569Z,3.17
2019-04-03T16:07:44.950Z,4.40
2019-04-03T16:10:14.247Z,2.10
2019-04-03T16:12:44.022Z,4.67
2019-04-03T16:15:12.840Z,2.52
2019-04-03T16:17:41.996Z,4.15
2019-04-03T16:20:11.489Z,3.62
2019-04-03T16:22:40.238Z,3.33
2019-04-03T16:25:09.338Z,4.80
2019-04-03T16:27:37.996Z,3.30
2019-04-03T16:30:08.825Z,3.60
2019-04-03T16:32:37.679Z,4.28
2019-04-03T16:35:07.815Z,3.15
2019-04-03T16:37:36.550Z,4.05
2019-04-03T16:40:07.019Z,4.08
2019-04-03T16:42:35.652Z,3.58
2019-04-03T16:45:08.519Z,2.80
2019-04-03T16:47:37.258Z,2.00
2019-04-03T16:50:09.887Z,3.08
2019-04-03T16:52:38.766Z,5.78
2019-04-03T16:55:09.117Z,3.62
2019-04-03T16:57:38.269Z,2.67
2019-04-03T17:00:09.565Z,3.00
2019-04-03T17:02:38.850Z,2.95
2019-04-03T17:05:11.331Z,3.52
2019-04-03T17:07:39.279Z,2.15
2019-04-03T17:10:09.937Z,3.00
2019-04-03T17:15:09.594Z,4.15
2019-04-03T17:20:07.968Z,3.00
2019-04-03T17:22:38.897Z,3.17
2019-04-03T17:25:08.747Z,2.77
2019-04-03T17:27:39.319Z,1.90
2019-04-03T17:30:10.350Z,2.55
2019-04-03T17:32:39.944Z,2.33
2019-04-03T17:35:08.884Z,3.52
2019-04-03T17:37:38.456Z,3.67
2019-04-03T17:40:10.118Z,3.02
2019-04-03T17:42:39.233Z,6.12
2019-04-03T17:45:09.635Z,4.40
2019-04-03T17:47:38.171Z,3.08
2019-04-03T17:50:08.564Z,4.00
2019-04-03T17:52:37.217Z,3.70
2019-04-03T17:55:10.067Z,5.42
2019-04-03T17:57:39.383Z,4.58
2019-04-03T18:00:13.921Z,2.90
2019-04-03T18:02:42.591Z,4.87
2019-04-03T18:05:11.655Z,4.47
2019-04-03T18:07:40.572Z,6.03
2019-04-03T18:10:12.444Z,4.42
2019-04-03T18:12:39.966Z,2.55
2019-04-03T18:15:09.792Z,4.78
2019-04-03T18:17:38.428Z,7.33
2019-04-03T18:20:08.212Z,3.33
2019-04-03T18:22:36.735Z,4.08
2019-04-03T18:25:08.359Z,5.53
2019-04-03T18:27:37.108Z,4.78
2019-04-03T18:30:11.425Z,4.22
2019-04-03T18:32:38.830Z,3.35
2019-04-03T18:35:07.954Z,3.20
2019-04-03T18:37:36.450Z,2.25
2019-04-03T18:40:07.171Z,3.42
2019-04-03T18:42:35.815Z,4.90
2019-04-03T18:45:05.964Z,3.37
2019-04-03T18:47:41.284Z,6.20
2019-04-03T18:50:06.496Z,3.17
2019-04-03T18:52:38.550Z,5.03
2019-04-03T18:55:07.637Z,1.40
2019-04-03T18:57:36.300Z,1.85
2019-04-03T19:00:08.153Z,1.40
2019-04-03T19:02:36.732Z,1.70
2019-04-03T19:05:09.870Z,2.25
2019-04-03T19:07:38.960Z,1.55
2019-04-03T19:10:08.297Z,1.02
2019-04-03T19:12:37.214Z,1.27
2019-04-03T19:15:07.028Z,1.07
2019-04-03T19:17:35.569Z,1.22
2019-04-03T19:20:10.776Z,0.65
2019-04-03T19:22:36.061Z,2.05
2019-04-03T19:25:07.004Z,1.85
2019-04-03T19:27:35.848Z,3.35
2019-04-03T19:30:07.051Z,1.20
2019-04-03T19:32:36.702Z,1.17
2019-04-03T19:35:09.452Z,3.65
2019-04-03T19:37:39.150Z,1.80
2019-04-03T19:40:09.700Z,1.45
2019-04-03T19:42:38.822Z,4.37
2019-04-03T19:45:08.143Z,2.12
2019-04-03T19:47:36.879Z,2.50
2019-04-03T19:50:09.438Z,1.82
2019-04-03T19:52:41.615Z,1.57
2019-04-03T19:55:09.171Z,14.33
2019-04-03T19:57:38.000Z,2.90
2019-04-03T20:00:08.139Z,1.70
2019-04-03T20:02:38.214Z,5.08
2019-04-03T20:05:07.262Z,2.27
2019-04-03T20:07:35.804Z,5.47
2019-04-03T20:10:07.147Z,2.62
2019-04-03T20:15:07.112Z,3.30
2019-04-03T20:17:36.818Z,13.47
2019-04-03T20:20:09.281Z,7.58
2019-04-03T20:22:42.133Z,5.53
2019-04-03T20:25:08.365Z,2.97
2019-04-03T20:27:37.180Z,3.60
2019-04-03T20:30:09.149Z,7.47
2019-04-03T20:32:40.079Z,3.02
2019-04-03T20:35:08.678Z,3.20
2019-04-03T20:37:37.337Z,2.90
2019-04-03T20:40:09.152Z,2.50
2019-04-03T20:42:40.808Z,3.45
2019-04-03T20:45:08.482Z,2.40
2019-04-03T20:47:37.073Z,3.80
2019-04-03T20:50:07.891Z,3.60
2019-04-03T20:52:36.378Z,3.08
2019-04-03T20:55:06.760Z,3.47
2019-04-03T20:57:35.328Z,2.27
2019-04-03T21:00:12.172Z,3.20
2019-04-03T21:02:42.153Z,3.95
2019-04-03T21:05:11.007Z,2.50
2019-04-03T21:07:39.528Z,3.22
2019-04-03T21:10:08.809Z,4.37
2019-04-03T21:12:37.490Z,3.90
2019-04-03T21:15:08.819Z,4.22
2019-04-03T21:20:06.924Z,2.58
2019-04-03T21:22:35.371Z,5.22
2019-04-03T21:25:05.979Z,3.55
2019-04-03T21:27:34.989Z,4.03
2019-04-03T21:30:05.273Z,3.15
2019-04-03T21:32:33.908Z,4.83
2019-04-03T21:35:03.923Z,2.90
2019-04-03T21:37:32.912Z,3.20
2019-04-03T21:40:04.697Z,4.72
2019-04-03T21:42:31.852Z,2.80
2019-04-03T21:45:02.576Z,2.70
2019-04-03T21:47:30.990Z,3.00
2019-04-03T21:49:59.481Z,3.60
2019-04-03T21:52:27.971Z,3.62
2019-04-03T21:54:58.434Z,3.12
2019-04-03T21:57:26.942Z,2.25
2019-04-03T21:59:55.525Z,2.10
2019-04-03T22:02:23.995Z,1.90
2019-04-03T22:04:53.874Z,2.27
2019-04-03T22:07:23.043Z,2.00
2019-04-03T22:09:51.502Z,2.70
2019-04-03T22:12:20.050Z,2.20
2019-04-03T22:14:48.515Z,2.85
2019-04-03T22:17:16.990Z,2.22
2019-04-03T22:19:45.683Z,2.60
2019-04-03T22:22:14.304Z,2.67
2019-04-03T22:24:42.747Z,3.52
2019-04-03T22:27:11.516Z,3.85
2019-04-03T22:29:40.747Z,3.15
2019-04-03T22:32:09.367Z,2.85
2019-04-03T22:34:37.844Z,3.58
2019-04-03T22:37:06.810Z,2.33
2019-04-03T22:39:36.982Z,3.25
2019-04-03T22:42:05.612Z,3.42
2019-04-03T22:44:34.043Z,4.70
2019-04-03T22:47:02.547Z,2.92
2019-04-03T22:49:33.626Z,3.20
2019-04-03T22:52:01.436Z,3.63
2019-04-03T22:54:30.502Z,4.10
2019-04-03T22:56:59.032Z,3.98
2019-04-03T22:59:27.495Z,3.70
2019-04-03T23:01:56.244Z,4.75
2019-04-03T23:04:24.706Z,4.28
2019-04-03T23:06:53.391Z,4.92
2019-04-03T23:09:24.726Z,4.30
2019-04-03T23:11:52.291Z,4.25
2019-04-03T23:14:21.004Z,3.75
2019-04-03T23:16:49.706Z,6.65
2019-04-03T23:19:18.618Z,4.17
2019-04-03T23:21:47.161Z,4.62
2019-04-03T23:24:15.678Z,2.77
2019-04-03T23:26:44.122Z,2.87
2019-04-03T23:29:12.838Z,3.47
2019-04-03T23:31:44.658Z,2.95
2019-04-03T23:34:11.762Z,3.52
2019-04-03T23:36:40.484Z,3.95
2019-04-03T23:39:09.430Z,3.08
2019-04-03T23:41:37.935Z,2.52
2019-04-03T23:44:06.389Z,2.75
2019-04-03T23:46:35.148Z,2.85
2019-04-03T23:49:03.699Z,2.75
2019-04-03T23:51:32.786Z,2.70
2019-04-03T23:54:02.814Z,5.40
2019-04-03T23:56:31.932Z,4.03
2019-04-03T23:59:00.561Z,2.90
